• Join FlightAware (Why Join?)
  • Login
  • US Flag 
06:00PM EDT


 

Airport Tracker/Info


-or-


 

Live Flight TrackerFlight Track Log ✈ UAL5669 ✈ 19-Jul-2013 ✈ KORD - KFSD

Flight Track Log - Related Links

Times and Time Zones

All times are in EDT time to prevent confusion due to time zone crossing. See the UAL5669 flight status page for this flight to view local times or setup timezone preferences in your user account.

Time Position Orientation Groundspeed Altitude Reporting Facility
EDT Latitude Longitude Course Direction KTS MPH feet Rate Location/Type
07:39PM 42.0000 -87.9500 270° West 176 203 1,500  Level Chicago TRACON
07:40PM 42.0167 -88.0000 294° West 212 244 3,100 1,440 Climbing Chicago TRACON
07:42PM 42.0514 -88.1256 290° West 231 266 5,100 1,740 Climbing Chicago Center
07:43PM 41.9667 -88.3885 270° West  Level FlightAware Approximate
07:43PM 42.0794 -88.2358 289° West 253 291 7,800  Level Chicago Center
07:44PM 41.9667 -88.5106 270° West  Level FlightAware Approximate
07:44PM 42.0881 -88.3306 277° West 268 308 9,800  Level Chicago Center
07:45PM 41.9668 -88.6327 270° West  Level FlightAware Approximate
07:45PM 42.0869 -88.4333 269° West 273 314 11,300  Level Chicago Center
07:46PM 42.0908 -88.5475 273° West 300 345 12,700 1,500 Climbing Chicago Center
07:47PM 42.0942 -88.6675 272° West 319 367 14,400 1,620 Climbing Chicago Center
07:48PM 42.0975 -88.8136 272° West 328 377 16,100 1,620 Climbing Chicago Center
07:49PM 42.1017 -88.9322 273° West 335 386 17,800 1,980 Climbing Chicago Center
07:50PM 42.1047 -89.0475 272° West 317 365 20,200 1,500 Climbing Chicago Center
07:51PM 42.1092 -89.1839 273° West 315 362 20,900 600 Climbing Chicago Center
07:52PM 42.1150 -89.3186 273° West 352 405 21,500 660 Climbing Chicago Center
07:53PM 42.1181 -89.4550 272° West 364 419 22,300 840 Climbing Chicago Center
07:54PM 42.1219 -89.5931 272° West 368 423 23,300 1,500 Climbing Chicago Center
07:55PM 42.1281 -89.7269 274° West 360 414 25,500 1,800 Climbing Chicago Center
07:56PM 42.1372 -89.8469 276° West 328 377 27,100 1,440 Climbing Chicago Center
07:57PM 42.1467 -89.9753 276° West 322 371 28,500 1,200 Climbing Chicago Center
07:58PM 42.1564 -90.0964 276° West 325 374 29,600 1,200 Climbing Chicago Center
07:59PM 42.1647 -90.2139 276° West 322 371 31,000 1,200 Climbing Chicago Center
08:00PM 42.1733 -90.3536 275° West 314 361 32,100 840 Climbing Chicago Center
08:01PM 42.1817 -90.4731 275° West 322 371 32,800 600 Climbing Chicago Center
08:02PM 42.1919 -90.5986 276° West 336 387 33,400 540 Climbing Chicago Center
08:04PM 42.2031 -90.7247 277° West 342 394 34,000 240 Climbing Chicago Center
08:05PM 42.2156 -90.8586 277° West 357 411 34,000  Level Chicago Center
08:06PM 42.2303 -91.0319 277° West 389 448 34,000  Level Chicago Center
08:07PM 42.2447 -91.1822 277° West 404 465 34,000  Level Chicago Center
08:08PM 42.2589 -91.3328 277° West 407 468 34,000  Level Chicago Center
08:09PM 42.2739 -91.4839 278° West 408 470 34,000  Level Chicago Center
08:10PM 42.3033 -91.6300 285° West 406 467 34,000  Level Chicago Center
08:11PM 42.3503 -91.8028 290° West 408 470 34,000  Level Chicago Center
08:12PM 42.3897 -91.9433 291° West 403 464 34,000  Level Chicago Center
08:13PM 42.4283 -92.0869 290° West 405 466 34,000 480 Level Chicago Center
08:14PM 42.4675 -92.2297 290° West 406 467 35,000 960 Climbing Chicago Center
08:15PM 42.5044 -92.3656 290° West 392 451 36,000 480 Climbing Chicago Center
08:16PM 42.5406 -92.5017 290° West 387 445 36,000  Level Chicago Center
08:17PM 42.5781 -92.6458 289° West 401 461 36,000  Level Minneapolis Center
08:18PM 42.6178 -92.7917 290° West 412 474 36,000  Level Minneapolis Center
08:19PM 42.6556 -92.9367 290° West 413 475 36,000  Level Minneapolis Center
08:20PM 42.6936 -93.0792 290° West 405 466 36,000  Level Minneapolis Center
08:21PM 42.7375 -93.2494 289° West 401 461 36,000  Level Minneapolis Center
08:22PM 42.7733 -93.3894 289° West 397 457 36,000  Level Minneapolis Center
08:23PM 42.8100 -93.5272 290° West 393 452 36,000  Level Minneapolis Center
08:24PM 42.8483 -93.6678 290° West 397 457 36,000  Level Minneapolis Center
08:25PM 42.8842 -93.8114 289° West 402 463 36,000  Level Minneapolis Center
08:26PM 42.9281 -93.9822 289° West 401 461 36,000  Level Minneapolis Center
08:27PM 42.9628 -94.1258 288° West 402 463 36,000  Level Minneapolis Center
08:28PM 42.9994 -94.2692 289° West 403 464 36,000  Level Minneapolis Center
08:29PM 43.0328 -94.4117 288° West 397 457 36,000  Level Minneapolis Center
08:30PM 43.0683 -94.5553 289° West 397 457 36,000  Level Minneapolis Center
08:31PM 43.1111 -94.7267 289° West 397 457 36,000  Level Minneapolis Center
08:32PM 43.1458 -94.8692 289° West 397 457 36,000 -120 Level Minneapolis Center
08:33PM 43.1811 -95.0128 289° West 397 457 35,800 -900 Descending Minneapolis Center
08:34PM 43.2150 -95.1550 288° West 394 453 34,200 -1,620 Descending Minneapolis Center
08:35PM 43.2467 -95.2881 288° West 374 430 32,500 -2,700 Descending Minneapolis Center
08:36PM 43.2786 -95.4231 288° West 372 428 28,700 -4,380 Descending Minneapolis Center
08:37PM 43.3186 -95.5956 288° West 391 450 23,500 -4,320 Descending Minneapolis Center
08:39PM 43.3508 -95.7378 287° West 392 451 19,800 -3,360 Descending Minneapolis Center
08:40PM 43.3747 -95.8728 284° West 370 426 16,500 -3,000 Descending Minneapolis Center
08:41PM 43.3944 -96.0056 282° West 358 412 13,600 -2,760 Descending Minneapolis Center
08:42PM 43.4144 -96.1314 282° West 342 394 10,900 -2,040 Descending Minneapolis Center
08:43PM 43.4306 -96.2464 281° West 322 371 9,500 -1,800 Descending Minneapolis Center
08:44PM 43.4461 -96.3447 282° West 291 335 7,200 -1,920 Descending Minneapolis Center
08:45PM 43.4639 -96.4636 282° West 273 314 5,600 -1,260 Descending Minneapolis Center
08:46PM 43.4786 -96.5622 282° West 268 308 4,700 -900 Descending Minneapolis Center